This is the latest recevied weather packets stored in our database for station/object OK4ZAW-16. If no packets are shown the sender has not sent any weather packets the latest 10 day(s).
| Time | Temp. | Humidity | Pressure | Rain* | Wind** | Luminosity | Snow |
|---|---|---|---|---|---|---|---|
| 1777492096 | -3.33° C | 10% | - | - | - | - | - |
| 1777491265 | -2.78° C | 96% | 1027.4 hPa | - | - | 150 W/m² | - |
| 1777490849 | -2.78° C | 95% | 1027.3 hPa | - | - | 150 W/m² | - |
| 1777490434 | -2.78° C | 94% | 1027.3 hPa | - | - | 150 W/m² | - |
| 1777490018 | -2.78° C | 92% | 1027.2 hPa | - | - | 150 W/m² | - |
| 1777488357 | -2.78° C | 85% | 1026.9 hPa | - | - | 150 W/m² | - |
| 1777487526 | -2.78° C | 81% | 1026.9 hPa | - | - | 150 W/m² | - |
| 1777486695 | -2.22° C | 74% | 1026.7 hPa | - | - | 150 W/m² | - |
| 1777485448 | -1.67° C | 64% | 1026.6 hPa | - | - | 150 W/m² | - |
| 1777482955 | 0° C | 53% | 1026.4 hPa | - | - | 150 W/m² | - |
| 1777480461 | 0.56° C | 49% | 1026 hPa | - | - | 150 W/m² | - |
| 1777480045 | 0.56° C | 49% | 1025.9 hPa | - | - | 150 W/m² | - |
| 1777479214 | 1.11° C | 47% | 1025.6 hPa | - | - | 150 W/m² | - |
| 1777477135 | 2.22° C | 41% | 1025.6 hPa | - | - | 150 W/m² | - |
| 1777476719 | 2.78° C | 39% | 1025.4 hPa | - | - | 150 W/m² | - |
| 1777475887 | 4.44° C | 35% | 1025.6 hPa | - | - | 150 W/m² | - |
| 1777473391 | 7.22° C | 31% | 1025.7 hPa | - | - | 150 W/m² | - |
| 1777472975 | 7.22° C | 31% | 1025.8 hPa | - | - | 150 W/m² | - |
| 1777472559 | 7.22° C | 31% | 1025.5 hPa | - | - | 150 W/m² | - |
| 1777472143 | 7.78° C | 34% | 1025.5 hPa | - | - | 150 W/m² | - |
| 1777469647 | 6.11° C | 37% | 1025.6 hPa | - | - | 150 W/m² | - |
| 1777469231 | 5° C | 38% | 1025.6 hPa | - | - | 150 W/m² | - |
| 1777468815 | 4.44° C | 40% | 1025.4 hPa | - | - | 150 W/m² | - |
| 1777468399 | 3.89° C | 41% | 1025.3 hPa | - | - | 150 W/m² | - |
| 1777467983 | 3.89° C | 41% | 1025.3 hPa | - | - | 150 W/m² | - |
* Rain since midnight (hover to see other rain measurements)
** Current wind speed in m/s (hover to see current wind gust speed)